Time;durP1;ratioP1;P1;durP2;ratioP2;P2;SDS_P1;SDS_P2;PMS_P1;PMS_P2;Temp;Humidity;BMP_temperature;BMP_pressure;BME280_temperature;BME280_humidity;BME280_pressure;Samples;Min_cycle;Max_cycle;Signal;HPM_P1;HPM_P2
2023/03/06 00:01:31;;;;;;;16.00;6.55;;;5.30;99.90;;;5.02;100.00;100298.78;5124885;28;20040;-69
2023/03/06 00:04:03;;;;;;;14.05;6.32;;;5.20;99.90;;;4.93;100.00;100301.81;5123261;28;20039;-67
2023/03/06 00:06:35;;;;;;;16.17;6.78;;;5.20;99.90;;;4.84;100.00;100293.63;5123655;28;20078;-68
2023/03/06 00:09:08;;;;;;;15.60;6.82;;;5.10;99.90;;;4.83;100.00;100297.03;5124132;28;20043;-67
2023/03/06 00:11:42;;;;;;;14.88;6.18;;;5.10;99.90;;;4.80;100.00;100299.44;5118192;28;20039;-68
2023/03/06 00:14:14;;;;;;;15.85;6.25;;;5.00;99.90;;;4.82;100.00;100290.06;5141617;28;20051;-68
2023/03/06 00:16:46;;;;;;;13.52;6.03;;;5.00;99.90;;;4.84;100.00;100289.34;5126345;28;20055;-68
2023/03/06 00:19:19;;;;;;;14.10;6.00;;;5.00;99.90;;;4.82;100.00;100280.59;5126219;28;20047;-69
2023/03/06 00:21:51;;;;;;;13.07;5.68;;;5.10;99.90;;;4.80;100.00;100282.25;5127430;28;20106;-69
2023/03/06 00:24:23;;;;;;;13.88;5.90;;;5.00;99.90;;;4.82;100.00;100284.88;5126770;28;20471;-69
2023/03/06 00:26:56;;;;;;;12.60;4.90;;;5.00;99.90;;;4.85;100.00;100283.34;5122844;28;20051;-68
2023/03/06 00:29:28;;;;;;;10.77;5.38;;;5.10;99.90;;;4.88;100.00;100280.91;5122493;28;20050;-68
2023/03/06 00:32:01;;;;;;;11.07;4.93;;;5.10;99.90;;;4.88;100.00;100285.19;5124808;28;20540;-68
2023/03/06 00:34:33;;;;;;;12.43;4.80;;;5.10;99.90;;;4.85;100.00;100274.72;5110892;28;20412;-68
2023/03/06 00:37:05;;;;;;;12.68;4.70;;;5.10;99.90;;;4.76;100.00;100282.00;5136213;28;20043;-68
2023/03/06 00:39:38;;;;;;;10.18;4.53;;;5.00;99.90;;;4.73;100.00;100276.69;5126390;28;20104;-68
2023/03/06 00:42:11;;;;;;;9.68;4.50;;;4.90;99.90;;;4.73;100.00;100271.53;5126533;28;20035;-68
2023/03/06 00:44:44;;;;;;;9.45;4.45;;;5.00;99.90;;;4.71;100.00;100270.59;5106008;28;20048;-68
2023/03/06 00:47:16;;;;;;;11.45;4.20;;;4.90;99.90;;;4.70;100.00;100266.22;5126375;28;20051;-68
2023/03/06 00:49:49;;;;;;;13.05;4.22;;;4.90;99.90;;;4.71;100.00;100260.25;5125996;28;20054;-67
2023/03/06 00:52:21;;;;;;;8.52;3.60;;;4.90;99.90;;;4.71;100.00;100261.13;5126344;28;20044;-68
2023/03/06 00:54:54;;;;;;;8.57;3.63;;;4.90;99.90;;;4.71;100.00;100261.13;5124875;28;20036;-68
2023/03/06 00:57:27;;;;;;;9.18;3.50;;;4.90;99.90;;;4.70;100.00;100253.31;5126696;28;20125;-68
2023/03/06 01:00:00;;;;;;;7.95;3.58;;;4.90;99.90;;;4.70;100.00;100250.75;5126051;28;20472;-67
2023/03/06 01:02:32;;;;;;;7.65;3.08;;;4.90;99.90;;;4.70;100.00;100243.88;5127072;28;20076;-68
2023/03/06 01:05:06;;;;;;;8.55;3.20;;;4.90;99.90;;;4.71;100.00;100247.34;5125032;28;20055;-67
2023/03/06 01:07:38;;;;;;;7.82;3.20;;;4.90;99.90;;;4.72;100.00;100236.19;5127037;28;20118;-68
2023/03/06 01:10:11;;;;;;;6.93;3.00;;;4.90;99.90;;;4.73;100.00;100237.97;5125409;28;20125;-68
2023/03/06 01:12:45;;;;;;;7.95;3.00;;;4.90;99.90;;;4.72;100.00;100236.19;5125435;28;20083;-68
2023/03/06 01:15:17;;;;;;;6.85;2.88;;;4.90;99.90;;;4.71;100.00;100229.28;5118955;28;20114;-67
2023/03/06 01:17:53;;;;;;;7.88;3.45;;;4.90;99.90;;;4.71;100.00;100231.84;5126582;28;20070;-68
2023/03/06 01:20:25;;;;;;;5.95;2.70;;;4.90;99.90;;;4.72;100.00;100231.03;5128193;28;20048;-68
2023/03/06 01:22:58;;;;;;;6.45;2.85;;;4.90;99.90;;;4.71;100.00;100221.53;5123611;28;20043;-68
2023/03/06 01:25:30;;;;;;;7.07;3.00;;;4.90;99.90;;;4.69;100.00;100225.72;5125761;28;20555;-67
2023/03/06 01:28:03;;;;;;;5.88;2.75;;;4.90;99.90;;;4.71;100.00;100221.53;5119936;28;20586;-68
2023/03/06 01:30:35;;;;;;;6.80;3.08;;;4.90;99.90;;;4.69;100.00;100215.38;5122467;28;20054;-68
2023/03/06 01:33:07;;;;;;;6.80;2.83;;;4.90;99.90;;;4.68;100.00;100211.91;5125274;28;20049;-67
2023/03/06 01:35:40;;;;;;;5.40;2.33;;;4.90;99.90;;;4.69;100.00;100205.06;5122911;28;20118;-68
2023/03/06 01:38:13;;;;;;;7.47;3.20;;;4.80;99.90;;;4.67;100.00;100204.97;5125398;28;20398;-68
2023/03/06 01:40:45;;;;;;;6.95;3.13;;;4.80;99.90;;;4.66;100.00;100205.81;5112423;28;20065;-68
2023/03/06 01:43:30;;;;;;;7.60;3.22;;;4.90;99.90;;;4.66;100.00;100203.22;5112681;28;20523;-68
2023/03/06 01:46:36;;;;;;;6.57;2.72;;;4.80;99.90;;;4.67;100.00;100193.78;5123996;28;20124;-67
2023/03/06 01:49:16;;;;;;;7.70;3.17;;;4.90;99.90;;;4.67;100.00;100191.19;5124412;28;20043;-68
2023/03/06 01:51:53;;;;;;;6.28;2.72;;;4.80;99.90;;;4.64;100.00;100191.94;5126085;28;20048;-68
2023/03/06 01:54:29;;;;;;;7.07;3.15;;;4.80;99.90;;;4.64;100.00;100189.38;5139598;28;20134;-67
2023/03/06 01:57:07;;;;;;;6.70;3.00;;;4.80;99.90;;;4.63;100.00;100187.59;5125768;28;20046;-68
2023/03/06 01:59:43;;;;;;;9.40;4.03;;;4.90;99.90;;;4.59;100.00;100180.50;5125462;28;20405;-68
2023/03/06 02:02:16;;;;;;;6.05;3.00;;;4.80;99.90;;;4.60;100.00;100185.72;5125930;28;20035;-68
2023/03/06 02:04:48;;;;;;;6.47;2.83;;;4.80;99.90;;;4.58;100.00;100179.63;5124394;28;20134;-69
2023/03/06 02:07:21;;;;;;;7.25;2.80;;;4.80;99.90;;;4.59;100.00;100176.22;5125608;28;20075;-68
2023/03/06 02:09:53;;;;;;;9.13;3.53;;;4.80;99.90;;;4.59;100.00;100175.34;5125051;28;20051;-68
2023/03/06 02:12:28;;;;;;;8.80;3.67;;;4.80;99.90;;;4.59;100.00;100168.47;5127181;28;20047;-68
2023/03/06 02:15:02;;;;;;;8.40;3.65;;;4.80;99.90;;;4.59;100.00;100173.63;5123415;28;20572;-68
2023/03/06 02:17:35;;;;;;;9.10;3.55;;;4.80;99.90;;;4.59;100.00;100168.47;5125817;28;20129;-68
2023/03/06 02:20:17;;;;;;;7.97;3.45;;;4.80;99.90;;;4.59;100.00;100168.47;5123938;28;20043;-68
2023/03/06 02:23:00;;;;;;;9.20;3.65;;;4.80;99.90;;;4.59;100.00;100162.44;5127427;28;20043;-68
2023/03/06 02:25:37;;;;;;;8.13;2.83;;;4.80;99.90;;;4.60;100.00;100159.91;5124646;28;20571;-68
2023/03/06 02:28:12;;;;;;;10.30;4.50;;;4.80;99.90;;;4.60;100.00;100159.91;5125630;28;20043;-68
2023/03/06 02:30:48;;;;;;;8.15;3.28;;;4.80;99.90;;;4.59;100.00;100146.94;5120019;28;20095;-67
2023/03/06 02:33:23;;;;;;;11.65;4.13;;;4.80;99.90;;;4.59;100.00;100146.94;5120215;28;20142;-68
2023/03/06 02:35:58;;;;;;;10.70;4.05;;;4.80;99.90;;;4.60;100.00;100146.13;5119881;28;20041;-68
2023/03/06 02:38:37;;;;;;;10.57;4.43;;;4.80;99.90;;;4.60;100.00;100144.44;5124215;28;20039;-68
2023/03/06 02:41:11;;;;;;;12.25;4.72;;;4.80;99.90;;;4.61;100.00;100137.56;5124170;28;20448;-68
2023/03/06 02:43:45;;;;;;;9.75;4.60;;;4.80;99.90;;;4.60;100.00;100139.25;5125086;28;20039;-68
2023/03/06 02:46:19;;;;;;;12.55;4.78;;;4.80;99.90;;;4.60;100.00;100131.53;5123329;28;20049;-67
2023/03/06 02:48:51;;;;;;;11.82;4.82;;;4.80;99.90;;;4.59;100.00;100137.50;5124834;28;20039;-68
2023/03/06 02:51:23;;;;;;;12.05;5.13;;;4.80;99.90;;;4.59;100.00;100132.34;5123559;28;20496;-69
2023/03/06 02:53:55;;;;;;;14.77;5.43;;;4.80;99.90;;;4.60;100.00;100126.34;5125053;28;20162;-68
2023/03/06 02:56:29;;;;;;;12.70;5.20;;;4.80;99.90;;;4.60;100.00;100128.94;5127661;28;20043;-67
2023/03/06 02:59:02;;;;;;;14.60;6.25;;;4.80;99.90;;;4.59;100.00;100128.88;5121821;28;20067;-68
2023/03/06 03:01:34;;;;;;;14.48;5.28;;;4.80;99.90;;;4.57;100.00;100121.06;5123508;28;20051;-67
2023/03/06 03:04:06;;;;;;;12.65;5.40;;;4.80;99.90;;;4.58;100.00;100119.38;5123660;28;20544;-68
2023/03/06 03:06:38;;;;;;;12.60;4.78;;;4.80;99.90;;;4.58;100.00;100120.25;5124802;28;20404;-68
2023/03/06 03:09:10;;;;;;;12.13;5.78;;;4.80;99.90;;;4.58;100.00;100119.38;5123270;28;20047;-67
2023/03/06 03:14:34;;;;;;;13.77;5.00;;;4.80;99.90;;;4.57;100.00;100115.91;5078866;29;20044;-68
2023/03/06 03:17:08;;;;;;;;;;;4.80;99.90;;;4.56;100.00;100116.72;5067063;29;20507;-67
2023/03/06 03:19:40;;;;;;;11.65;4.90;;;4.80;99.90;;;4.56;100.00;100111.56;5092108;29;19922;-68
2023/03/06 03:22:12;;;;;;;12.07;4.60;;;4.80;99.90;;;4.56;100.00;100116.72;5102446;29;20530;-67
2023/03/06 03:24:44;;;;;;;12.05;4.70;;;4.80;99.90;;;4.56;100.00;100103.81;5102395;29;20036;-67
2023/03/06 03:27:18;;;;;;;14.00;5.55;;;4.80;99.90;;;4.58;100.00;100115.09;5085643;29;20040;-68
2023/03/06 03:29:51;;;;;;;10.88;4.72;;;4.80;99.90;;;4.57;100.00;100108.16;5085477;29;20134;-68
2023/03/06 03:32:24;;;;;;;12.65;5.13;;;4.80;99.90;;;4.57;100.00;100113.31;5095621;29;20091;-67
2023/03/06 03:34:58;;;;;;;12.07;5.18;;;4.80;99.90;;;4.56;100.00;100108.97;5085075;29;20409;-68
2023/03/06 03:37:31;;;;;;;13.63;5.93;;;4.80;99.90;;;4.56;100.00;100100.31;5096190;29;20051;-68
2023/03/06 03:40:06;;;;;;;13.52;5.47;;;4.80;99.90;;;4.55;100.00;100099.44;5100011;29;20039;-69
2023/03/06 03:42:38;;;;;;;17.30;5.95;;;4.80;99.90;;;4.55;100.00;100093.38;5101296;29;20139;-68
2023/03/06 03:45:13;;;;;;;16.88;6.68;;;4.80;99.90;;;4.54;100.00;100097.66;5085012;29;20079;-68
2023/03/06 03:47:46;;;;;;;14.65;5.88;;;4.80;99.90;;;4.54;100.00;100091.63;5104553;29;20063;-68
2023/03/06 03:50:19;;;;;;;17.85;7.15;;;4.70;99.90;;;4.55;100.00;100093.38;5106091;29;20408;-68
2023/03/06 03:52:52;;;;;;;16.60;6.57;;;4.80;99.90;;;4.54;100.00;100091.63;5089367;29;20047;-68
2023/03/06 03:55:24;;;;;;;17.30;6.32;;;4.70;99.90;;;4.55;100.00;100101.13;5098980;29;20118;-69
2023/03/06 03:57:57;;;;;;;17.55;6.60;;;4.70;99.90;;;4.54;100.00;100081.31;5089059;29;20114;-68
2023/03/06 04:00:31;;;;;;;17.30;6.85;;;4.80;99.90;;;4.56;100.00;100090.91;5106232;29;20520;-67
2023/03/06 04:03:16;;;;;;;21.35;7.50;;;4.80;99.90;;;4.56;100.00;100079.66;5089214;29;20040;-67
2023/03/06 04:05:52;;;;;;;17.15;6.78;;;4.80;99.90;;;4.54;100.00;100077.03;5101393;29;20519;-68
2023/03/06 04:08:26;;;;;;;22.35;9.23;;;4.80;99.90;;;4.53;100.00;100072.69;5098683;29;20079;-67
2023/03/06 04:10:58;;;;;;;22.73;8.45;;;4.80;99.90;;;4.51;100.00;100078.59;5106368;29;20131;-67
2023/03/06 04:13:31;;;;;;;21.17;8.23;;;4.70;99.90;;;4.52;100.00;100081.25;5088842;29;20134;-67
2023/03/06 04:16:06;;;;;;;22.52;8.95;;;4.80;99.90;;;4.52;100.00;100077.78;5106185;29;20127;-67
2023/03/06 04:18:40;;;;;;;22.38;8.90;;;4.70;99.90;;;4.48;100.00;100068.09;5088988;29;20509;-67
2023/03/06 04:21:13;;;;;;;26.35;9.00;;;4.70;99.90;;;4.43;100.00;100061.84;5088603;29;20505;-68
2023/03/06 04:23:45;;;;;;;22.55;9.45;;;4.70;99.90;;;4.41;100.00;100053.16;5097671;29;20134;-67
2023/03/06 04:26:19;;;;;;;25.42;10.07;;;4.70;99.90;;;4.38;100.00;100053.00;5088138;29;20432;-67
2023/03/06 04:28:51;;;;;;;24.80;9.18;;;4.70;99.90;;;4.37;100.00;100059.88;5089240;29;20044;-67
2023/03/06 04:31:26;;;;;;;26.17;9.82;;;4.60;99.90;;;4.35;100.00;100053.72;5085492;29;20107;-68
2023/03/06 04:33:58;;;;;;;21.88;9.30;;;4.60;99.90;;;4.38;100.00;100055.59;5085301;29;20044;-67
2023/03/06 04:36:33;;;;;;;24.92;9.43;;;4.60;99.90;;;4.37;100.00;100049.56;5104474;29;20043;-69
2023/03/06 04:39:18;;;;;;;23.42;9.38;;;4.70;99.90;;;4.33;100.00;100050.22;5088576;29;20050;-68
2023/03/06 04:41:50;;;;;;;24.80;9.45;;;4.60;99.90;;;4.34;100.00;100046.81;5105689;29;20493;-68
2023/03/06 04:44:22;;;;;;;23.38;8.68;;;4.60;99.90;;;4.36;100.00;100040.00;5104740;29;20046;-68
2023/03/06 04:46:56;;;;;;;24.95;9.45;;;4.60;99.90;;;4.38;100.00;100038.41;5105167;29;20043;-68
2023/03/06 04:49:29;;;;;;;25.33;9.70;;;4.60;99.90;;;4.38;100.00;100038.41;5105251;29;20046;-68
2023/03/06 04:52:03;;;;;;;22.75;9.32;;;4.60;99.90;;;4.36;100.00;100024.53;5104837;29;20044;-67
2023/03/06 04:54:35;;;;;;;19.60;8.70;;;4.60;99.90;;;4.39;100.00;100024.69;5105032;29;20047;-67
2023/03/06 04:57:07;;;;;;;20.55;8.25;;;4.60;99.90;;;4.43;100.00;100021.44;5105244;29;20063;-68
2023/03/06 04:59:39;;;;;;;17.33;7.78;;;4.70;99.90;;;4.47;100.00;100006.97;5104520;28;20051;-68
2023/03/06 05:02:15;;;;;;;19.48;7.72;;;4.70;99.90;;;4.49;100.00;100013.97;5105221;29;20134;-68
2023/03/06 05:04:47;;;;;;;17.80;6.95;;;4.70;99.90;;;4.52;100.00;100021.88;5105169;29;20040;-67
2023/03/06 05:07:20;;;;;;;19.50;7.57;;;4.70;99.90;;;4.53;100.00;100017.59;5104655;29;20051;-68
2023/03/06 05:09:52;;;;;;;16.95;7.45;;;4.70;99.90;;;4.55;100.00;100018.53;5105373;29;20079;-68
2023/03/06 05:12:24;;;;;;;18.45;7.60;;;4.80;99.90;;;4.56;100.00;100016.06;5104612;29;20046;-68
2023/03/06 05:14:58;;;;;;;18.17;6.72;;;4.80;99.90;;;4.57;100.00;100020.41;5103077;29;20051;-67
2023/03/06 05:17:32;;;;;;;18.02;7.88;;;4.80;99.90;;;4.58;100.00;100010.97;5097827;29;20130;-68
2023/03/06 05:20:07;;;;;;;16.80;6.68;;;4.80;99.90;;;4.58;100.00;100006.66;5104241;29;20048;-68
2023/03/06 05:22:41;;;;;;;18.92;7.10;;;4.80;99.90;;;4.58;100.00;100016.13;5104985;29;20094;-68
2023/03/06 05:25:13;;;;;;;18.55;6.97;;;4.80;99.90;;;4.56;100.00;100018.63;5087095;29;20051;-67
2023/03/06 05:27:46;;;;;;;20.88;8.20;;;4.80;99.90;;;4.54;100.00;100012.50;5105218;29;20058;-68
2023/03/06 05:30:20;;;;;;;26.60;9.82;;;4.80;99.90;;;4.49;100.00;100021.72;5104576;29;20412;-68
2023/03/06 05:32:53;;;;;;;26.73;9.38;;;4.70;99.90;;;4.48;100.00;100021.66;5104789;29;20048;-69
2023/03/06 05:35:26;;;;;;;24.98;9.32;;;4.70;99.90;;;4.44;100.00;100020.66;5104202;29;20040;-68
2023/03/06 05:37:58;;;;;;;22.60;8.77;;;4.70;99.90;;;4.46;100.00;100026.75;5099641;29;20056;-67
2023/03/06 05:40:31;;;;;;;20.55;8.20;;;4.70;99.90;;;4.44;100.00;100028.38;5091489;29;20056;-68
2023/03/06 05:43:03;;;;;;;23.52;9.95;;;4.70;99.90;;;4.42;100.00;100019.66;5101163;29;20453;-68
2023/03/06 05:45:36;;;;;;;23.77;9.55;;;4.70;99.90;;;4.39;100.00;100018.66;5104482;29;20075;-68
2023/03/06 05:48:12;;;;;;;25.15;9.75;;;4.70;99.90;;;4.39;100.00;100016.94;5104096;29;20127;-68
2023/03/06 05:50:44;;;;;;;21.33;8.65;;;4.60;99.90;;;4.41;100.00;100023.06;5104712;29;20050;-68
2023/03/06 05:53:16;;;;;;;25.05;9.50;;;4.60;99.90;;;4.41;100.00;100017.91;5104194;29;20048;-68
2023/03/06 05:55:56;;;;;;;29.55;10.60;;;4.60;99.90;;;4.42;100.00;100024.81;5104535;29;20040;-68
2023/03/06 05:58:30;;;;;;;25.58;9.77;;;4.70;99.90;;;4.40;100.00;100028.16;5079268;29;20047;-68
2023/03/06 06:01:09;;;;;;;27.38;10.25;;;4.60;99.90;;;4.33;100.00;100024.41;5103852;29;20058;-69
2023/03/06 06:03:43;;;;;;;30.80;10.88;;;4.60;99.90;;;4.29;100.00;100022.47;5103795;29;20048;-68
2023/03/06 06:06:16;;;;;;;31.02;10.77;;;4.60;99.90;;;4.21;100.00;100023.81;5103518;29;20048;-68
2023/03/06 06:08:48;;;;;;;29.00;10.88;;;4.50;99.90;;;4.18;100.00;100019.41;5104031;29;20043;-67
2023/03/06 06:11:20;;;;;;;32.97;12.55;;;4.50;99.90;;;4.14;100.00;100026.91;5103840;29;20150;-67
2023/03/06 06:13:52;;;;;;;29.33;11.02;;;4.50;99.90;;;4.12;100.00;100018.22;5103940;29;20548;-68
2023/03/06 06:16:24;;;;;;;27.15;11.40;;;4.40;99.90;;;4.11;100.00;100016.44;5103854;29;20408;-68
2023/03/06 06:18:58;;;;;;;29.42;10.20;;;4.40;99.90;;;4.13;100.00;100020.00;5103593;29;20059;-68
2023/03/06 06:21:31;;;;;;;33.20;11.73;;;4.40;99.90;;;4.12;100.00;100015.66;5104458;29;20050;-68
2023/03/06 06:24:03;;;;;;;29.13;11.60;;;4.40;99.90;;;4.12;100.00;100019.13;5103841;29;20060;-67
2023/03/06 06:26:35;;;;;;;31.10;11.32;;;4.40;99.90;;;4.11;100.00;100017.34;5098731;29;20036;-69
2023/03/06 06:29:07;;;;;;;30.55;11.57;;;4.40;99.90;;;4.12;100.00;100018.22;5100735;29;20047;-68
2023/03/06 06:31:41;;;;;;;30.00;11.23;;;4.40;99.90;;;4.13;100.00;100014.84;5082750;29;20048;-68
2023/03/06 06:34:15;;;;;;;28.75;10.80;;;4.40;99.90;;;4.15;100.00;100023.53;5068154;29;20424;-68
2023/03/06 06:36:48;;;;;;;33.08;11.38;;;4.40;99.90;;;4.16;100.00;100022.72;5103702;29;20032;-68
2023/03/06 06:39:23;;;;;;;30.23;10.98;;;4.50;99.90;;;4.18;100.00;100018.53;5103494;29;20051;-68
2023/03/06 06:41:58;;;;;;;35.20;12.40;;;4.50;99.90;;;4.19;100.00;100020.28;5103686;29;20044;-68
2023/03/06 06:44:30;;;;;;;;;;;4.50;99.90;;;4.18;100.00;100014.25;5103916;29;20051;-68
2023/03/06 06:47:04;;;;;;;31.40;11.32;;;4.50;99.90;;;4.15;100.00;100013.19;5103047;29;20406;-69
2023/03/06 06:49:38;;;;;;;31.70;11.90;;;4.40;99.90;;;4.16;100.00;100022.72;5103450;29;20225;-67
2023/03/06 06:52:10;;;;;;;35.42;11.38;;;4.50;99.90;;;4.16;100.00;100018.44;5103357;29;20046;-68
2023/03/06 06:54:43;;;;;;;34.97;12.40;;;4.50;99.90;;;4.17;100.00;100021.88;5103255;29;20043;-69
2023/03/06 06:57:16;;;;;;;31.02;10.82;;;4.40;99.90;;;4.16;100.00;100014.97;5102939;29;20047;-68
2023/03/06 06:59:48;;;;;;;33.88;12.75;;;4.40;99.90;;;4.16;100.00;100020.13;5103427;29;20146;-68
2023/03/06 07:02:22;;;;;;;34.30;12.68;;;4.40;99.90;;;4.14;100.00;100024.34;5103017;29;20044;-68
2023/03/06 07:04:56;;;;;;;31.33;11.38;;;4.40;99.90;;;4.12;100.00;100019.13;5103150;29;20401;-56
2023/03/06 07:07:28;;;;;;;31.50;11.15;;;4.40;99.90;;;4.15;100.00;100028.69;5122955;29;20082;-56
2023/03/06 07:10:00;;;;;;;29.63;11.25;;;4.40;99.90;;;4.13;100.00;100025.16;5107497;29;20428;-55
2023/03/06 07:12:33;;;;;;;29.65;11.20;;;4.40;99.90;;;4.16;100.00;100025.28;5103481;29;20052;-55
2023/03/06 07:15:07;;;;;;;32.13;11.95;;;4.40;99.90;;;4.19;100.00;100026.34;5103530;29;20035;-55
2023/03/06 07:17:39;;;;;;;26.35;9.93;;;4.50;99.90;;;4.18;100.00;100026.25;5103377;29;20044;-57
2023/03/06 07:20:13;;;;;;;28.00;10.68;;;4.40;99.90;;;4.18;100.00;100031.44;5103457;29;20102;-57
2023/03/06 07:22:45;;;;;;;31.75;12.00;;;4.50;99.90;;;4.18;100.00;100028.84;5103266;29;20044;-56
2023/03/06 07:25:18;;;;;;;32.45;10.40;;;4.50;99.90;;;4.22;100.00;100033.31;5103717;29;20132;-56
2023/03/06 07:27:52;;;;;;;28.50;10.95;;;4.50;99.90;;;4.24;100.00;100029.13;5103275;29;20039;-57
2023/03/06 07:30:25;;;;;;;26.85;9.98;;;4.50;99.90;;;4.26;100.00;100036.13;5103229;29;20055;-55
2023/03/06 07:32:58;;;;;;;27.52;10.52;;;4.50;99.90;;;4.30;100.00;100034.56;5103313;29;20047;-56
2023/03/06 07:35:32;;;;;;;27.67;9.80;;;4.60;99.90;;;4.34;100.00;100037.38;5111168;29;20043;-56
2023/03/06 07:38:04;;;;;;;28.83;11.30;;;4.60;99.90;;;4.36;100.00;100037.44;5103327;29;20051;-55
2023/03/06 07:40:37;;;;;;;28.08;10.70;;;4.60;99.90;;;4.37;100.00;100034.06;5103098;29;20477;-55
2023/03/06 07:43:10;;;;;;;29.90;9.93;;;4.60;99.90;;;4.39;100.00;100039.28;5119873;29;20152;-55
2023/03/06 07:45:55;;;;;;;25.17;10.02;;;4.60;99.90;;;4.37;100.00;100031.50;5105632;29;20043;-55
2023/03/06 07:48:28;;;;;;;31.63;11.98;;;4.60;99.90;;;4.37;100.00;100026.34;5123127;29;20519;-55
2023/03/06 07:51:04;;;;;;;28.90;10.93;;;4.70;99.90;;;4.41;100.00;100038.53;5123413;29;20059;-57
2023/03/06 07:53:36;;;;;;;27.02;10.27;;;4.70;99.90;;;4.42;100.00;100027.41;5083717;29;20052;-55
2023/03/06 07:56:09;;;;;;;29.75;10.55;;;4.70;99.90;;;4.43;100.00;100030.88;5099786;29;20556;-55
2023/03/06 07:58:44;;;;;;;30.50;11.38;;;4.70;99.90;;;4.45;100.00;100040.47;5103227;29;20047;-56
2023/03/06 08:01:20;;;;;;;27.90;10.63;;;4.70;99.90;;;4.40;100.00;100031.63;5103587;29;20058;-57
2023/03/06 08:03:53;;;;;;;31.15;10.65;;;4.70;99.90;;;4.38;100.00;100038.41;5101724;29;20048;-56
2023/03/06 08:06:28;;;;;;;29.90;10.70;;;4.60;99.90;;;4.34;100.00;100036.50;5103165;29;20043;-52
2023/03/06 08:09:00;;;;;;;27.67;10.05;;;4.60;99.90;;;4.33;100.00;100045.03;5103095;29;20055;-52
2023/03/06 08:11:32;;;;;;;32.83;11.20;;;4.60;99.90;;;4.33;100.00;100030.44;5106906;29;20122;-52
2023/03/06 08:14:05;;;;;;;26.77;10.02;;;4.60;99.90;;;4.36;100.00;100034.84;5122541;29;20098;-52
2023/03/06 08:16:37;;;;;;;27.60;9.50;;;4.60;99.90;;;4.40;100.00;100036.78;5122920;29;20147;-52
2023/03/06 08:19:09;;;;;;;26.20;9.95;;;4.70;99.90;;;4.48;100.00;100031.97;5122645;29;20066;-53
2023/03/06 08:21:42;;;;;;;22.75;9.02;;;4.70;99.90;;;4.57;100.00;100030.72;5115097;29;20477;-52
2023/03/06 08:24:15;;;;;;;19.20;7.60;;;4.80;99.90;;;4.73;100.00;100034.00;5102546;29;20040;-51
2023/03/06 08:26:47;;;;;;;24.85;8.38;;;4.90;99.90;;;4.84;100.00;100041.44;5102947;29;20063;-51
2023/03/06 08:29:19;;;;;;;22.70;8.48;;;5.00;99.90;;;4.85;100.00;100037.16;5103081;29;20059;-52
2023/03/06 08:31:51;;;;;;;23.48;8.48;;;5.10;99.90;;;4.87;100.00;100036.38;5102882;29;20071;-52
2023/03/06 08:34:26;;;;;;;21.77;8.38;;;5.10;99.90;;;4.85;100.00;100031.97;5103981;29;20055;-52
2023/03/06 08:37:00;;;;;;;25.33;8.93;;;5.10;99.90;;;4.87;100.00;100033.81;5106532;29;20060;-53
2023/03/06 08:39:32;;;;;;;28.58;10.35;;;5.10;99.90;;;4.85;100.00;100047.47;5106415;29;20154;-52
2023/03/06 08:42:04;;;;;;;32.88;11.85;;;5.10;99.90;;;4.85;100.00;100037.16;5105880;29;20139;-53
2023/03/06 08:44:36;;;;;;;28.02;9.63;;;5.10;99.90;;;4.88;100.00;100048.47;5106282;29;20425;-53
2023/03/06 08:47:08;;;;;;;27.48;9.73;;;5.10;99.90;;;4.86;100.00;100041.50;5106263;29;20137;-52
2023/03/06 08:49:40;;;;;;;29.92;9.82;;;5.10;99.90;;;5.01;100.00;100041.28;5105931;29;20047;-56
2023/03/06 08:52:15;;;;;;;25.23;10.13;;;5.30;99.90;;;5.18;100.00;100046.41;5105785;29;20055;-55
2023/03/06 08:54:47;;;;;;;27.63;9.55;;;5.40;99.90;;;5.25;100.00;100044.09;5106088;29;20044;-52
2023/03/06 08:57:19;;;;;;;23.13;9.15;;;5.50;99.90;;;5.28;100.00;100049.38;5105920;29;20066;-53
2023/03/06 08:59:52;;;;;;;26.27;9.13;;;5.50;99.90;;;5.23;100.00;100056.94;5106519;29;20055;-52
2023/03/06 09:02:24;;;;;;;21.42;8.02;;;5.50;99.90;;;5.22;100.00;100054.31;5106323;29;20078;-51
2023/03/06 09:04:56;;;;;;;23.50;9.15;;;5.50;99.90;;;5.43;100.00;100047.47;5110818;29;20065;-52
2023/03/06 09:07:30;;;;;;;21.55;7.82;;;5.70;99.90;;;5.52;100.00;100045.28;5108043;29;20051;-52
2023/03/06 09:10:02;;;;;;;20.75;7.82;;;5.70;99.90;;;5.56;100.00;100044.59;5108667;29;20058;-51
2023/03/06 09:12:37;;;;;;;16.77;6.90;;;5.80;99.90;;;5.64;100.00;100044.94;5187838;23;20458;-54
2023/03/06 09:15:11;;;;;;;16.55;6.07;;;5.80;99.90;;;5.69;100.00;100048.59;5125465;28;20043;-54
2023/03/06 09:17:43;;;;;;;16.55;5.70;;;5.80;99.90;;;5.77;100.00;100049.78;5130387;28;20499;-54
2023/03/06 09:20:16;;;;;;;14.88;6.13;;;5.90;99.90;;;5.85;100.00;100039.75;5129326;28;20054;-55
2023/03/06 09:22:50;;;;;;;14.82;5.60;;;6.00;99.90;;;5.80;100.00;100036.97;5139869;28;20051;-54
2023/03/06 09:25:22;;;;;;;13.55;5.38;;;5.90;99.90;;;5.86;100.00;100041.53;5135691;28;20527;-54
2023/03/06 09:27:54;;;;;;;16.20;5.88;;;6.00;99.90;;;5.86;100.00;100046.69;5131031;28;20453;-53
2023/03/06 09:30:26;;;;;;;13.98;5.28;;;6.00;99.90;;;5.85;100.00;100044.94;5143915;28;20117;-53
2023/03/06 09:32:58;;;;;;;16.10;6.50;;;6.00;99.90;;;5.82;100.00;100042.22;5137394;28;20053;-53
2023/03/06 09:35:30;;;;;;;13.65;5.93;;;6.00;99.90;;;5.77;100.00;100047.22;5129336;28;20043;-54
2023/03/06 09:38:04;;;;;;;11.63;4.65;;;5.90;99.90;;;5.77;100.00;100048.91;5137950;28;20059;-53
2023/03/06 09:40:55;;;;;;;16.17;6.05;;;5.90;99.90;;;5.73;100.00;100055.66;5144991;28;20117;-54
2023/03/06 09:43:34;;;;;;;15.70;5.93;;;5.90;99.90;;;5.65;100.00;100055.31;5145071;28;20090;-54
2023/03/06 09:46:22;;;;;;;14.38;5.50;;;5.90;99.90;;;5.63;100.00;100049.22;5129102;28;20574;-53
2023/03/06 09:49:30;;;;;;;14.93;5.82;;;5.80;99.90;;;5.60;100.00;100043.91;5125753;28;20049;-54
2023/03/06 09:52:22;;;;;;;16.92;6.43;;;5.80;99.90;;;5.60;100.00;100048.19;5136068;28;20049;-54
2023/03/06 09:55:03;;;;;;;20.92;6.90;;;5.80;99.90;;;5.59;100.00;100043.84;5133651;28;20055;-53
2023/03/06 09:57:38;;;;;;;20.45;7.03;;;5.80;99.90;;;5.56;100.00;100054.06;5136865;28;20062;-53
2023/03/06 10:00:16;;;;;;;17.40;7.32;;;5.70;99.90;;;5.53;100.00;100048.75;5128853;28;20094;-54
2023/03/06 10:02:55;;;;;;;17.00;6.80;;;5.70;99.90;;;5.55;100.00;100045.44;5138128;28;20039;-55
2023/03/06 10:05:36;;;;;;;20.33;8.15;;;5.80;99.90;;;5.55;100.00;100045.44;5111471;28;20059;-54
2023/03/06 10:08:23;;;;;;;17.02;6.82;;;5.80;99.90;;;5.58;100.00;100050.72;5145536;28;20462;-54
2023/03/06 10:11:02;;;;;;;17.20;6.97;;;5.80;99.90;;;5.66;100.00;100041.56;5118427;28;20050;-54
2023/03/06 10:13:41;;;;;;;18.60;7.35;;;5.80;99.90;;;5.76;100.00;100036.81;5137572;28;20051;-54
2023/03/06 10:16:25;;;;;;;15.82;6.25;;;5.90;99.90;;;5.84;100.00;100032.81;5137346;28;20055;-54
2023/03/06 10:19:03;;;;;;;16.80;6.95;;;6.00;99.90;;;5.92;100.00;100031.47;5133853;28;20110;-54
2023/03/06 10:21:47;;;;;;;18.00;6.80;;;6.00;99.90;;;5.95;100.00;100039.38;5107315;29;20051;-54
2023/03/06 10:24:44;;;;;;;17.65;6.72;;;6.10;99.90;;;5.95;100.00;100035.06;5141629;28;20047;-54
2023/03/06 10:27:33;;;;;;;14.55;6.25;;;6.10;99.90;;;5.97;100.00;100035.13;5128424;28;20066;-54
2023/03/06 10:30:26;;;;;;;19.45;7.40;;;6.10;99.90;;;6.02;100.00;100030.16;5144419;28;20419;-53
2023/03/06 10:33:01;;;;;;;17.55;7.43;;;6.10;99.90;;;6.05;100.00;100025.97;5126273;28;20079;-55
2023/03/06 10:35:48;;;;;;;15.90;6.95;;;6.20;99.90;;;6.09;100.00;100025.28;5112609;28;20439;-56
2023/03/06 10:38:23;;;;;;;15.32;6.07;;;6.20;99.90;;;6.10;100.00;100032.22;5107547;28;20067;-53
2023/03/06 10:41:03;;;;;;;;;;;6.20;99.90;;;6.13;100.00;100027.19;5117027;28;20052;-56
2023/03/06 10:43:39;;;;;;;19.10;8.50;;;6.30;99.90;;;6.13;100.00;100031.44;5114485;28;20395;-54
2023/03/06 10:46:14;;;;;;;17.40;7.45;;;6.30;99.90;;;6.14;100.00;100036.72;5098291;28;20500;-55